Falmouth, Kentucky
Current Conditions -  °F | °C
As of 1:53 AM on Thursday 18 Dec 2014 (Local Time) from KLUK Reporting Station
Overcast Overcast  
Wind Chill: 18°   Ceiling: 2000
Heat Index: 26°   Visibility: 10mi
Dew Point: 19°   Wind: 7mph
Humidity: 75%   Direction: 350°N
Pressure: 30.32"   Gusts: NA
Location:  38.68°N, 84.33°W
Report Text: KLUK 180653Z AUTO 35006KT 10SM OVC020 M03/M07 A3032 RMK AO2 SLP271 T10331072
Loading
Personal Weather Stations






























Interactive Weather Map New forecast layout! Learn more

10-Day Weather Forecast

Advertisements
Track Severe Weather on mobile